createdAt,value
2022-10-10T00:01:22.294Z,72.80
2022-10-10T00:03:50.107Z,79.60
2022-10-10T00:06:18.843Z,77.57
2022-10-10T00:08:46.903Z,71.50
2022-10-10T00:11:16.994Z,71.45
2022-10-10T00:13:45.554Z,75.68
2022-10-10T00:16:14.338Z,74.95
2022-10-10T00:18:43.251Z,81.25
2022-10-10T00:21:11.999Z,80.90
2022-10-10T00:23:40.097Z,81.72
2022-10-10T00:26:09.227Z,79.55
2022-10-10T00:28:38.926Z,79.47
2022-10-10T00:31:09.067Z,83.88
2022-10-10T00:33:37.795Z,86.03
2022-10-10T00:36:06.814Z,95.85
2022-10-10T00:38:34.954Z,110.15
2022-10-10T00:41:04.065Z,95.40
2022-10-10T00:43:32.456Z,95.03
2022-10-10T00:46:00.680Z,82.15
2022-10-10T00:48:41.226Z,98.20
2022-10-10T00:51:15.585Z,89.07
2022-10-10T00:53:50.515Z,99.47
2022-10-10T00:56:23.002Z,72.53
2022-10-10T00:58:54.101Z,96.70
2022-10-10T01:01:22.546Z,153.68
2022-10-10T01:03:50.450Z,113.97
2022-10-10T01:06:18.310Z,145.07
2022-10-10T01:08:46.069Z,145.25
2022-10-10T01:11:25.818Z,166.10
2022-10-10T01:14:08.941Z,136.70
2022-10-10T01:16:48.517Z,140.23
2022-10-10T01:19:28.262Z,112.13
2022-10-10T01:22:05.561Z,118.22
2022-10-10T01:24:56.919Z,116.25
2022-10-10T01:27:31.619Z,94.75
2022-10-10T01:30:06.073Z,132.55
2022-10-10T01:32:54.475Z,163.50
2022-10-10T01:35:45.467Z,155.98
2022-10-10T01:38:44.185Z,161.02
2022-10-10T01:41:34.626Z,188.07
2022-10-10T01:44:02.592Z,115.75
2022-10-10T01:46:32.253Z,100.10
2022-10-10T01:49:01.784Z,93.40
2022-10-10T01:51:47.037Z,102.10
2022-10-10T01:54:40.276Z,99.22
2022-10-10T01:57:14.160Z,83.32
2022-10-10T02:00:09.104Z,107.22
2022-10-10T02:03:07.339Z,81.30
2022-10-10T02:05:44.036Z,161.27
2022-10-10T02:08:18.767Z,173.80
2022-10-10T02:11:00.755Z,114.28
2022-10-10T02:13:38.597Z,210.02
2022-10-10T02:16:15.669Z,142.73
2022-10-10T02:18:47.024Z,93.65
2022-10-10T02:21:16.634Z,87.47
2022-10-10T02:23:48.391Z,91.13
2022-10-10T02:26:18.977Z,74.55
2022-10-10T02:28:53.795Z,80.50
2022-10-10T02:31:54.569Z,81.82
2022-10-10T02:34:27.955Z,95.95
2022-10-10T02:37:03.105Z,89.57
2022-10-10T02:39:37.088Z,91.65
2022-10-10T02:42:08.311Z,113.22
2022-10-10T02:44:37.327Z,94.93
2022-10-10T02:47:05.493Z,80.15
2022-10-10T02:49:35.009Z,88.50
2022-10-10T02:52:03.680Z,86.82
2022-10-10T02:54:31.401Z,72.93
2022-10-10T02:56:59.679Z,81.95
2022-10-10T02:59:27.350Z,79.22
2022-10-10T03:01:55.418Z,71.47
2022-10-10T03:04:23.188Z,83.97
2022-10-10T03:06:51.501Z,74.78
2022-10-10T03:09:19.149Z,80.93
2022-10-10T03:11:47.067Z,72.03
2022-10-10T03:14:14.740Z,72.15
2022-10-10T03:16:42.570Z,77.45
2022-10-10T03:19:10.314Z,80.55
2022-10-10T03:21:38.023Z,92.45
2022-10-10T03:24:06.532Z,83.03
2022-10-10T03:26:34.534Z,142.15
2022-10-10T03:29:03.703Z,130.00
2022-10-10T03:31:32.352Z,98.97
2022-10-10T03:34:00.517Z,134.48
2022-10-10T03:36:28.370Z,103.43
2022-10-10T03:38:56.249Z,84.70
2022-10-10T03:41:24.213Z,89.45
2022-10-10T03:43:52.400Z,71.47
2022-10-10T03:46:20.924Z,96.75
2022-10-10T03:48:49.204Z,66.28
2022-10-10T03:51:16.864Z,65.97
2022-10-10T03:53:44.772Z,73.43
2022-10-10T03:56:12.569Z,85.22
2022-10-10T03:58:40.570Z,68.93
2022-10-10T04:01:08.587Z,62.25
2022-10-10T04:03:36.488Z,76.55
2022-10-10T04:06:04.411Z,59.70
2022-10-10T04:08:32.610Z,62.30
2022-10-10T04:11:00.334Z,79.75
2022-10-10T04:13:28.305Z,79.53
2022-10-10T04:15:57.408Z,100.38
2022-10-10T04:18:25.955Z,129.73
2022-10-10T04:20:53.885Z,77.88
2022-10-10T04:23:22.116Z,93.65
2022-10-10T04:25:53.170Z,97.07
2022-10-10T04:28:21.228Z,99.28
2022-10-10T04:30:49.208Z,108.05
2022-10-10T04:33:17.535Z,78.32
2022-10-10T04:35:47.208Z,103.68
2022-10-10T04:38:15.047Z,79.47
2022-10-10T04:40:42.721Z,68.43
2022-10-10T04:43:11.821Z,116.45
2022-10-10T04:45:40.204Z,88.55
2022-10-10T04:48:08.131Z,70.13
2022-10-10T04:50:35.865Z,59.95
2022-10-10T04:53:03.915Z,68.53
2022-10-10T04:55:31.649Z,57.13
2022-10-10T04:57:59.720Z,86.28
2022-10-10T05:00:27.683Z,53.00
2022-10-10T05:02:56.074Z,77.43
2022-10-10T05:05:23.942Z,84.43
2022-10-10T05:07:55.456Z,65.97
2022-10-10T05:10:24.628Z,59.90
2022-10-10T05:12:53.404Z,45.70
2022-10-10T05:15:22.729Z,38.50
2022-10-10T05:17:50.780Z,39.63
2022-10-10T05:20:18.621Z,40.45
2022-10-10T05:22:46.781Z,35.75
2022-10-10T05:25:14.542Z,36.38
2022-10-10T05:27:42.467Z,33.63
2022-10-10T05:30:10.614Z,38.33
2022-10-10T05:32:38.710Z,41.60
2022-10-10T05:35:07.513Z,56.03
2022-10-10T05:37:35.489Z,50.78
2022-10-10T05:40:03.565Z,46.72
2022-10-10T05:42:31.425Z,54.97
2022-10-10T05:44:59.261Z,53.08
2022-10-10T05:47:28.193Z,56.58
2022-10-10T05:49:56.112Z,49.30
2022-10-10T05:52:23.946Z,49.28
2022-10-10T05:54:52.515Z,58.25
2022-10-10T05:57:20.468Z,59.40
2022-10-10T05:59:48.282Z,58.50
2022-10-10T06:02:16.451Z,58.65
2022-10-10T06:04:44.437Z,58.00
2022-10-10T06:07:12.458Z,58.22
2022-10-10T06:09:40.380Z,50.40
2022-10-10T06:12:08.588Z,49.45
2022-10-10T06:14:36.247Z,44.72
2022-10-10T06:17:04.652Z,41.42
2022-10-10T06:19:32.339Z,40.33
2022-10-10T06:22:00.540Z,39.97
2022-10-10T06:24:28.198Z,36.50
2022-10-10T06:26:56.231Z,30.33
2022-10-10T06:29:23.972Z,32.83
2022-10-10T06:31:51.901Z,28.05
2022-10-10T06:34:19.689Z,29.20
2022-10-10T06:36:49.541Z,29.58
2022-10-10T06:39:17.348Z,29.88
2022-10-10T06:41:45.365Z,31.17
2022-10-10T06:44:13.093Z,28.83
2022-10-10T06:46:41.046Z,29.80
2022-10-10T06:49:08.763Z,31.83
2022-10-10T06:51:36.722Z,32.05
2022-10-10T06:54:05.118Z,33.88
2022-10-10T06:56:33.084Z,32.30
2022-10-10T06:59:01.111Z,32.38
2022-10-10T07:01:29.187Z,30.98
2022-10-10T07:03:56.924Z,32.10
2022-10-10T07:06:25.074Z,33.33
2022-10-10T07:08:52.803Z,33.78
2022-10-10T07:11:20.710Z,33.03
2022-10-10T07:13:51.408Z,33.65
2022-10-10T07:16:19.652Z,31.77
2022-10-10T07:18:47.446Z,32.40
2022-10-10T07:21:15.718Z,39.08
2022-10-10T07:23:43.516Z,47.20
2022-10-10T07:26:15.172Z,36.78
2022-10-10T07:28:43.080Z,30.23
2022-10-10T07:31:12.064Z,31.75
2022-10-10T07:33:49.871Z,31.83
2022-10-10T07:36:19.778Z,29.42
2022-10-10T07:38:54.775Z,29.77
2022-10-10T07:41:23.056Z,24.60
2022-10-10T07:43:55.965Z,28.05
2022-10-10T07:46:24.830Z,26.98
2022-10-10T07:48:52.574Z,21.70
2022-10-10T07:51:20.613Z,20.13
2022-10-10T07:53:48.393Z,23.00
2022-10-10T07:56:16.305Z,21.98
2022-10-10T07:58:43.972Z,19.70
2022-10-10T08:01:13.347Z,21.17
2022-10-10T08:03:41.570Z,19.65
2022-10-10T08:06:15.366Z,22.00
2022-10-10T08:08:50.935Z,18.23
2022-10-10T08:11:21.485Z,16.92
2022-10-10T08:13:50.081Z,18.75
2022-10-10T08:16:18.787Z,19.73
2022-10-10T08:18:46.698Z,15.50
2022-10-10T08:21:15.741Z,17.42
2022-10-10T08:23:44.010Z,16.35
2022-10-10T08:26:14.914Z,16.35
2022-10-10T08:28:43.730Z,15.52
2022-10-10T08:31:18.226Z,13.05
2022-10-10T08:36:20.944Z,14.55
2022-10-10T08:41:35.200Z,13.52
2022-10-10T08:44:23.185Z,13.75
2022-10-10T08:47:09.499Z,10.05
2022-10-10T08:49:49.777Z,12.20
2022-10-10T08:52:20.766Z,9.38
2022-10-10T08:54:50.058Z,16.30
2022-10-10T08:57:33.463Z,9.93
2022-10-10T09:00:07.684Z,11.07
2022-10-10T09:02:53.038Z,12.50
2022-10-10T09:05:31.860Z,12.60
2022-10-10T09:08:02.771Z,11.95
2022-10-10T09:10:39.493Z,10.55
2022-10-10T09:13:23.435Z,11.55
2022-10-10T09:16:17.658Z,10.00
2022-10-10T09:19:24.238Z,13.25
2022-10-10T09:21:57.297Z,11.98
2022-10-10T09:24:32.420Z,13.73
2022-10-10T09:27:09.593Z,10.48
2022-10-10T09:29:44.502Z,7.63
2022-10-10T09:32:14.362Z,8.45
2022-10-10T09:34:48.178Z,9.05
2022-10-10T09:37:42.332Z,8.52
2022-10-10T09:40:31.359Z,8.00
2022-10-10T09:43:10.902Z,8.25
2022-10-10T09:45:46.637Z,7.97
2022-10-10T09:48:14.475Z,6.30
2022-10-10T09:50:43.920Z,6.75
2022-10-10T09:53:16.178Z,6.70
2022-10-10T09:55:46.485Z,7.80
2022-10-10T09:58:35.602Z,7.68
2022-10-10T10:01:14.780Z,6.57
2022-10-10T10:03:42.926Z,6.07
2022-10-10T10:06:20.770Z,6.68
2022-10-10T10:08:53.525Z,6.85
2022-10-10T10:11:28.823Z,6.80
2022-10-10T10:13:57.980Z,9.85
2022-10-10T10:16:33.421Z,8.52
2022-10-10T10:19:01.588Z,8.68
2022-10-10T10:21:31.350Z,6.32
2022-10-10T10:24:01.656Z,5.60
2022-10-10T10:26:49.260Z,7.05
2022-10-10T10:29:33.131Z,6.85
2022-10-10T10:32:06.726Z,7.57
2022-10-10T10:34:47.827Z,6.93
2022-10-10T10:37:30.614Z,5.50
2022-10-10T10:40:16.931Z,7.32
2022-10-10T10:43:00.191Z,7.22
2022-10-10T10:45:59.073Z,5.30
2022-10-10T10:48:40.044Z,9.73
2022-10-10T10:51:22.894Z,7.68
2022-10-10T10:54:24.023Z,5.45
2022-10-10T10:57:40.832Z,5.70
2022-10-10T11:00:33.001Z,7.53
2022-10-10T11:05:16.125Z,7.15
2022-10-10T11:06:54.258Z,5.93
2022-10-10T11:09:50.234Z,4.35
2022-10-10T11:12:37.102Z,5.28
2022-10-10T11:15:19.286Z,5.80
2022-10-10T11:18:03.309Z,6.95
2022-10-10T11:20:37.177Z,6.88
2022-10-10T11:23:42.202Z,6.90
2022-10-10T11:26:35.360Z,7.97
2022-10-10T11:29:05.299Z,6.90
2022-10-10T11:31:40.468Z,5.65
2022-10-10T11:34:20.385Z,5.13
2022-10-10T11:36:48.912Z,5.90
2022-10-10T11:39:23.793Z,4.65
2022-10-10T11:41:58.060Z,5.40
2022-10-10T11:47:48.251Z,7.97
2022-10-10T11:50:29.002Z,10.98
2022-10-10T11:53:15.395Z,6.05
2022-10-10T11:56:12.777Z,6.78
2022-10-10T11:58:54.424Z,7.18
2022-10-10T12:01:40.438Z,8.65
2022-10-10T12:04:08.520Z,8.25
2022-10-10T12:06:41.440Z,9.38
2022-10-10T12:09:37.900Z,5.20
2022-10-10T12:12:13.054Z,6.32
2022-10-10T12:14:48.193Z,8.95
2022-10-10T12:17:39.909Z,6.05
2022-10-10T12:20:26.553Z,4.70
2022-10-10T12:23:19.594Z,4.55
2022-10-10T12:25:47.969Z,6.18
2022-10-10T12:28:15.764Z,5.90
2022-10-10T12:30:58.277Z,4.97
2022-10-10T12:33:29.338Z,6.05
2022-10-10T12:35:57.353Z,6.88
2022-10-10T12:38:28.056Z,4.50
2022-10-10T12:41:04.746Z,6.75
2022-10-10T12:43:52.179Z,3.92
2022-10-10T12:46:34.603Z,10.07
2022-10-10T12:49:05.156Z,5.55
2022-10-10T12:51:36.126Z,4.97
2022-10-10T12:54:06.577Z,3.72
2022-10-10T12:56:39.787Z,5.50
2022-10-10T12:59:23.859Z,4.45
2022-10-10T13:01:57.583Z,9.80
2022-10-10T13:04:28.423Z,4.22
2022-10-10T13:07:02.034Z,5.72
2022-10-10T13:09:35.831Z,8.07
2022-10-10T13:12:20.961Z,4.78
2022-10-10T13:14:48.984Z,7.07
2022-10-10T13:17:41.721Z,6.93
2022-10-10T13:20:26.663Z,6.35
2022-10-10T13:22:55.795Z,3.92
2022-10-10T13:25:24.411Z,5.25
2022-10-10T13:27:52.298Z,5.97
2022-10-10T13:30:25.477Z,4.38
2022-10-10T13:32:54.922Z,4.28
2022-10-10T13:35:26.743Z,6.45
2022-10-10T13:37:59.925Z,11.68
2022-10-10T13:40:28.616Z,6.70
2022-10-10T13:42:58.624Z,5.40
2022-10-10T13:45:30.940Z,7.82
2022-10-10T13:48:02.391Z,7.10
2022-10-10T13:50:48.752Z,4.95
2022-10-10T13:53:31.541Z,6.10
2022-10-10T13:55:59.674Z,4.82
2022-10-10T13:58:31.874Z,5.25
2022-10-10T14:01:02.873Z,5.57
2022-10-10T14:03:33.187Z,4.43
2022-10-10T14:06:01.423Z,4.32
2022-10-10T14:08:33.760Z,5.80
2022-10-10T14:11:07.837Z,6.93
2022-10-10T14:13:38.724Z,6.03
2022-10-10T14:16:13.696Z,5.72
2022-10-10T14:18:41.516Z,5.63
2022-10-10T14:21:09.582Z,4.60
2022-10-10T14:23:38.559Z,4.63
2022-10-10T14:26:11.171Z,4.22
2022-10-10T14:28:39.924Z,3.58
2022-10-10T14:31:08.082Z,2.13
2022-10-10T14:33:36.379Z,4.43
2022-10-10T14:36:04.460Z,5.10
2022-10-10T14:38:32.913Z,8.35
2022-10-10T14:41:01.822Z,5.82
2022-10-10T14:43:30.561Z,5.10
2022-10-10T14:45:58.257Z,4.22
2022-10-10T14:48:26.201Z,8.35
2022-10-10T14:50:53.902Z,6.82
2022-10-10T14:53:21.887Z,3.78
2022-10-10T14:55:55.248Z,3.90
2022-10-10T14:58:24.148Z,9.07
2022-10-10T15:00:53.127Z,11.05
2022-10-10T15:03:21.658Z,9.13
2022-10-10T15:05:49.618Z,5.25
2022-10-10T15:08:18.952Z,4.57
2022-10-10T15:10:47.695Z,5.45
2022-10-10T15:13:16.824Z,3.65
2022-10-10T15:15:46.422Z,7.65
2022-10-10T15:18:40.908Z,6.35
2022-10-10T15:21:09.940Z,7.07
2022-10-10T15:23:38.047Z,5.00
2022-10-10T15:26:06.307Z,6.55
2022-10-10T15:28:34.594Z,9.18
2022-10-10T15:31:03.167Z,8.73
2022-10-10T15:33:31.152Z,7.18
2022-10-10T15:36:09.542Z,11.00
2022-10-10T15:38:39.550Z,10.43
2022-10-10T15:41:10.260Z,9.63
2022-10-10T15:43:42.924Z,9.80
2022-10-10T15:46:10.853Z,10.68
2022-10-10T15:48:38.798Z,7.10
2022-10-10T15:51:08.168Z,7.68
2022-10-10T15:53:37.591Z,11.82
2022-10-10T15:56:13.353Z,10.60
2022-10-10T15:58:43.055Z,8.70
2022-10-10T16:01:13.796Z,9.13
2022-10-10T16:03:42.431Z,13.52
2022-10-10T16:06:11.582Z,11.27
2022-10-10T16:08:39.951Z,11.05
2022-10-10T16:11:10.260Z,10.80
2022-10-10T16:13:39.977Z,11.45
2022-10-10T16:16:10.581Z,17.10
2022-10-10T16:18:41.164Z,18.05
2022-10-10T16:21:14.134Z,18.23
2022-10-10T16:23:42.114Z,22.50
2022-10-10T16:26:22.228Z,16.83
2022-10-10T16:28:50.793Z,14.75
2022-10-10T16:31:19.786Z,16.90
2022-10-10T16:33:48.941Z,15.23
2022-10-10T16:36:22.278Z,20.95
2022-10-10T16:38:51.059Z,19.08
2022-10-10T16:41:35.578Z,21.77
2022-10-10T16:44:07.592Z,29.65
2022-10-10T16:46:35.531Z,25.05
2022-10-10T16:49:04.686Z,23.10
2022-10-10T16:51:32.476Z,36.97
2022-10-10T16:54:02.270Z,33.85
2022-10-10T16:56:30.521Z,31.02
2022-10-10T16:58:59.470Z,30.27
2022-10-10T17:01:27.649Z,30.33
2022-10-10T17:03:57.881Z,29.80
2022-10-10T17:06:25.677Z,25.40
2022-10-10T17:08:56.251Z,26.20
2022-10-10T17:11:25.677Z,34.17
2022-10-10T17:13:53.651Z,37.85
2022-10-10T17:19:12.328Z,32.15
2022-10-10T17:21:40.415Z,29.13
2022-10-10T17:24:08.408Z,32.40
2022-10-10T17:26:36.434Z,28.98
2022-10-10T17:29:04.251Z,36.38
2022-10-10T17:31:32.634Z,34.08
2022-10-10T17:34:00.512Z,96.18
2022-10-10T17:36:28.861Z,68.32
2022-10-10T17:38:57.197Z,56.78
2022-10-10T17:41:25.080Z,53.28
2022-10-10T17:43:53.443Z,42.88
2022-10-10T17:46:34.933Z,32.00
2022-10-10T17:49:05.762Z,24.63
2022-10-10T17:51:34.425Z,26.27
2022-10-10T17:54:03.508Z,27.80
2022-10-10T17:56:31.818Z,32.38
2022-10-10T17:59:01.980Z,40.47
2022-10-10T18:01:33.096Z,33.97
2022-10-10T18:04:02.153Z,29.25
2022-10-10T18:06:30.455Z,38.38
2022-10-10T18:08:58.607Z,31.27
2022-10-10T18:11:30.896Z,25.70
2022-10-10T18:14:01.682Z,43.80
2022-10-10T18:16:33.931Z,33.92
2022-10-10T18:19:03.672Z,28.20
2022-10-10T18:21:31.623Z,31.88
2022-10-10T18:24:00.704Z,25.52
2022-10-10T18:26:30.473Z,27.08
2022-10-10T18:28:58.807Z,26.63
2022-10-10T18:31:38.166Z,23.58
2022-10-10T18:34:07.019Z,22.13
2022-10-10T18:36:37.328Z,20.30
2022-10-10T18:39:08.078Z,23.95
2022-10-10T18:41:36.103Z,26.08
2022-10-10T18:44:06.849Z,25.55
2022-10-10T18:46:35.832Z,20.85
2022-10-10T18:49:06.119Z,23.80
2022-10-10T18:51:34.090Z,32.42
2022-10-10T18:54:08.489Z,33.67
2022-10-10T18:56:38.874Z,30.85
2022-10-10T18:59:11.734Z,22.55
2022-10-10T19:01:40.415Z,24.45
2022-10-10T19:04:10.313Z,22.92
2022-10-10T19:06:39.821Z,25.05
2022-10-10T19:09:12.001Z,26.58
2022-10-10T19:11:42.347Z,27.70
2022-10-10T19:14:16.075Z,35.47
2022-10-10T19:16:45.168Z,29.80
2022-10-10T19:19:18.478Z,27.10
2022-10-10T19:21:48.066Z,29.80
2022-10-10T19:24:20.907Z,23.48
2022-10-10T19:26:55.723Z,24.60
2022-10-10T19:29:27.318Z,28.05
2022-10-10T19:31:56.208Z,26.30
2022-10-10T19:34:24.707Z,20.70
2022-10-10T19:36:53.583Z,24.90
2022-10-10T19:39:21.506Z,24.70
2022-10-10T19:41:49.612Z,23.25
2022-10-10T19:44:17.770Z,21.85
2022-10-10T19:46:45.687Z,24.23
2022-10-10T19:49:13.423Z,20.33
2022-10-10T19:51:41.286Z,19.85
2022-10-10T19:54:09.380Z,24.33
2022-10-10T19:56:37.204Z,20.38
2022-10-10T19:59:06.078Z,22.25
2022-10-10T20:01:34.320Z,21.65
2022-10-10T20:04:02.314Z,23.58
2022-10-10T20:06:30.259Z,22.52
2022-10-10T20:08:58.304Z,20.73
2022-10-10T20:11:26.565Z,25.05
2022-10-10T20:13:55.965Z,32.08
2022-10-10T20:16:26.628Z,30.70
2022-10-10T20:18:56.317Z,30.48
2022-10-10T20:21:31.509Z,36.85
2022-10-10T20:24:02.191Z,30.73
2022-10-10T20:26:30.321Z,30.48
2022-10-10T20:28:58.541Z,28.67
2022-10-10T20:31:29.713Z,26.17
2022-10-10T20:34:00.781Z,29.38
2022-10-10T20:36:30.755Z,27.88
2022-10-10T20:39:01.497Z,24.77
2022-10-10T20:41:32.950Z,31.25
2022-10-10T20:44:03.405Z,27.92
2022-10-10T20:46:34.988Z,28.35
2022-10-10T20:49:05.375Z,33.15
2022-10-10T20:51:33.481Z,29.85
2022-10-10T20:54:03.776Z,30.63
2022-10-10T20:56:33.588Z,29.83
2022-10-10T20:59:02.234Z,31.52
2022-10-10T21:01:31.221Z,36.65
2022-10-10T21:03:59.863Z,30.42
2022-10-10T21:06:30.108Z,30.55
2022-10-10T21:09:00.692Z,26.13
2022-10-10T21:11:29.167Z,28.77
2022-10-10T21:13:59.198Z,35.10
2022-10-10T21:16:32.811Z,33.60
2022-10-10T21:19:01.146Z,34.22
2022-10-10T21:21:32.611Z,40.25
2022-10-10T21:24:02.369Z,35.28
2022-10-10T21:26:31.092Z,34.72
2022-10-10T21:29:02.894Z,33.13
2022-10-10T21:31:38.081Z,32.78
2022-10-10T21:34:08.250Z,33.78
2022-10-10T21:36:37.302Z,26.25
2022-10-10T21:39:08.496Z,26.95
2022-10-10T21:41:37.832Z,25.98
2022-10-10T21:44:06.136Z,26.95
2022-10-10T21:46:36.735Z,20.88
2022-10-10T21:49:10.676Z,19.52
2022-10-10T21:51:41.460Z,22.17
2022-10-10T21:54:10.334Z,18.55
2022-10-10T21:56:39.349Z,18.27
2022-10-10T21:59:07.326Z,22.92
2022-10-10T22:01:37.398Z,20.83
2022-10-10T22:04:05.746Z,19.25
2022-10-10T22:06:33.818Z,17.48
2022-10-10T22:09:02.762Z,15.45
2022-10-10T22:11:32.390Z,17.02
2022-10-10T22:14:02.487Z,16.58
2022-10-10T22:16:32.066Z,14.80
2022-10-10T22:18:59.948Z,17.88
2022-10-10T22:21:31.866Z,17.50
2022-10-10T22:24:02.824Z,14.60
2022-10-10T22:26:31.565Z,16.67
2022-10-10T22:28:59.567Z,16.80
2022-10-10T22:31:27.493Z,18.83
2022-10-10T22:33:55.417Z,15.13
2022-10-10T22:36:23.140Z,16.02
2022-10-10T22:38:51.127Z,19.15
2022-10-10T22:41:18.863Z,15.27
2022-10-10T22:43:46.824Z,16.35
2022-10-10T22:46:14.921Z,15.55
2022-10-10T22:48:42.636Z,14.40
2022-10-10T22:51:16.228Z,15.57
2022-10-10T22:53:45.509Z,15.52
2022-10-10T22:56:15.970Z,14.70
2022-10-10T22:58:44.030Z,13.63
2022-10-10T23:01:17.446Z,14.25
2022-10-10T23:03:45.599Z,14.95
2022-10-10T23:06:13.928Z,15.60
2022-10-10T23:08:41.710Z,19.92
2022-10-10T23:11:09.516Z,15.55
2022-10-10T23:13:37.406Z,12.60
2022-10-10T23:16:05.543Z,17.98
2022-10-10T23:18:33.731Z,15.27
2022-10-10T23:21:01.631Z,19.20
2022-10-10T23:23:29.764Z,14.77
2022-10-10T23:25:57.536Z,15.90
2022-10-10T23:28:25.538Z,14.02
2022-10-10T23:30:53.362Z,15.20
2022-10-10T23:33:21.094Z,15.75
2022-10-10T23:36:01.554Z,14.05
2022-10-10T23:38:30.540Z,13.20
2022-10-10T23:40:58.477Z,14.95
2022-10-10T23:43:26.298Z,14.27
2022-10-10T23:45:54.022Z,13.43
2022-10-10T23:48:21.947Z,16.00
2022-10-10T23:50:49.742Z,14.25
2022-10-10T23:53:17.622Z,12.60
2022-10-10T23:55:47.135Z,13.25
2022-10-10T23:58:15.841Z,14.27
